createdAt,value
2023-12-19T00:01:37.941Z,74.70
2023-12-19T00:04:04.867Z,74.90
2023-12-19T00:06:31.498Z,75.00
2023-12-19T00:09:03.768Z,75.00
2023-12-19T00:11:30.403Z,75.00
2023-12-19T00:13:57.612Z,75.00
2023-12-19T00:16:26.557Z,74.90
2023-12-19T00:18:55.097Z,74.90
2023-12-19T00:21:23.205Z,74.90
2023-12-19T00:23:52.430Z,74.90
2023-12-19T00:26:19.045Z,74.90
2023-12-19T00:28:45.659Z,75.00
2023-12-19T00:31:22.825Z,75.00
2023-12-19T00:33:49.726Z,75.20
2023-12-19T00:36:27.448Z,75.00
2023-12-19T00:38:56.558Z,75.30
2023-12-19T00:41:25.543Z,75.10
2023-12-19T00:43:54.415Z,75.10
2023-12-19T00:46:21.082Z,75.20
2023-12-19T00:48:47.897Z,75.20
2023-12-19T00:51:16.794Z,75.20
2023-12-19T00:53:46.424Z,75.30
2023-12-19T00:56:15.002Z,75.30
2023-12-19T00:58:41.939Z,75.50
2023-12-19T01:01:08.725Z,75.50
2023-12-19T01:03:36.523Z,75.50
2023-12-19T01:06:04.598Z,75.50
2023-12-19T01:08:38.897Z,75.60
2023-12-19T01:11:11.164Z,75.70
2023-12-19T01:13:38.020Z,75.80
2023-12-19T01:16:07.463Z,76.00
2023-12-19T01:18:34.169Z,75.50
2023-12-19T01:21:03.050Z,75.60
2023-12-19T01:23:29.730Z,75.70
2023-12-19T01:25:58.979Z,75.80
2023-12-19T01:28:25.594Z,75.90
2023-12-19T01:30:54.973Z,76.00
2023-12-19T01:33:26.916Z,76.10
2023-12-19T01:35:53.637Z,76.20
2023-12-19T01:38:20.357Z,76.10
2023-12-19T01:40:47.006Z,76.10
2023-12-19T01:43:25.172Z,76.30
2023-12-19T01:45:52.386Z,76.20
2023-12-19T01:48:24.403Z,76.30
2023-12-19T01:50:51.629Z,76.30
2023-12-19T01:53:20.550Z,76.20
2023-12-19T01:55:50.184Z,76.30
2023-12-19T01:58:16.820Z,76.40
2023-12-19T02:00:43.590Z,76.50
2023-12-19T02:03:10.572Z,76.50
2023-12-19T02:05:42.181Z,76.50
2023-12-19T02:08:13.701Z,76.60
2023-12-19T02:10:40.299Z,76.60
2023-12-19T02:13:06.925Z,76.60
2023-12-19T02:15:34.032Z,76.70
2023-12-19T02:18:21.080Z,76.70
2023-12-19T02:20:48.748Z,76.90
2023-12-19T02:23:16.453Z,76.60
2023-12-19T02:25:43.556Z,76.60
2023-12-19T02:28:10.494Z,76.60
2023-12-19T02:30:42.026Z,76.80
2023-12-19T02:33:13.272Z,76.80
2023-12-19T02:35:39.940Z,76.80
2023-12-19T02:38:06.580Z,76.80
2023-12-19T02:40:33.646Z,76.90
2023-12-19T02:43:04.187Z,76.90
2023-12-19T02:45:35.470Z,76.90
2023-12-19T02:48:03.619Z,76.90
2023-12-19T02:50:30.376Z,76.80
2023-12-19T02:52:57.415Z,76.80
2023-12-19T02:55:25.522Z,76.80
2023-12-19T02:57:52.269Z,76.80
2023-12-19T03:00:19.074Z,76.90
2023-12-19T03:02:46.311Z,76.90
2023-12-19T03:05:13.377Z,76.90
2023-12-19T03:07:40.104Z,76.90
2023-12-19T03:10:09.295Z,76.80
2023-12-19T03:12:38.493Z,76.90
2023-12-19T03:15:09.594Z,76.90
2023-12-19T03:17:38.589Z,76.80
2023-12-19T03:20:08.642Z,76.90
2023-12-19T03:22:37.194Z,76.80
2023-12-19T03:25:06.613Z,76.70
2023-12-19T03:27:35.793Z,76.70
2023-12-19T03:30:05.558Z,76.70
2023-12-19T03:32:36.245Z,76.70
2023-12-19T03:35:05.065Z,76.60
2023-12-19T03:37:34.945Z,76.60
2023-12-19T03:40:01.667Z,76.70
2023-12-19T03:42:28.411Z,76.70
2023-12-19T03:44:55.128Z,76.60
2023-12-19T03:47:24.286Z,76.80
2023-12-19T03:49:53.429Z,76.80
2023-12-19T03:52:20.136Z,76.90
2023-12-19T03:54:46.836Z,76.90
2023-12-19T03:57:13.492Z,77.00
2023-12-19T03:59:46.163Z,77.10
2023-12-19T04:02:17.983Z,77.20
2023-12-19T04:04:47.052Z,77.30
2023-12-19T04:07:17.842Z,77.40
2023-12-19T04:09:48.188Z,77.50
2023-12-19T04:12:19.689Z,77.60
2023-12-19T04:14:46.339Z,77.80
2023-12-19T04:17:16.477Z,77.90
2023-12-19T04:19:43.410Z,77.90
2023-12-19T04:22:10.167Z,78.00
2023-12-19T04:24:37.915Z,78.00
2023-12-19T04:27:04.664Z,78.10
2023-12-19T04:29:34.152Z,78.10
2023-12-19T04:32:00.906Z,78.10
2023-12-19T04:34:33.266Z,78.20
2023-12-19T04:36:59.931Z,78.30
2023-12-19T04:39:26.778Z,78.30
2023-12-19T04:41:55.672Z,78.40
2023-12-19T04:44:23.636Z,78.50
2023-12-19T04:46:50.230Z,78.50
2023-12-19T04:49:16.932Z,78.50
2023-12-19T04:51:44.902Z,78.50
2023-12-19T04:54:11.823Z,78.50
2023-12-19T04:56:38.542Z,78.60
2023-12-19T04:59:05.398Z,78.60
2023-12-19T05:01:34.591Z,78.60
2023-12-19T05:04:01.591Z,78.60
2023-12-19T05:06:28.220Z,78.60
2023-12-19T05:08:54.859Z,78.50
2023-12-19T05:11:24.202Z,78.50
2023-12-19T05:13:50.911Z,78.50
2023-12-19T05:16:19.207Z,78.50
2023-12-19T05:18:47.030Z,78.50
2023-12-19T05:21:21.906Z,78.40
2023-12-19T05:23:51.678Z,78.50
2023-12-19T05:26:18.829Z,78.50
2023-12-19T05:28:47.717Z,78.50
2023-12-19T05:31:19.542Z,78.50
2023-12-19T05:33:46.311Z,78.50
2023-12-19T05:36:16.968Z,78.50
2023-12-19T05:38:43.600Z,78.50
2023-12-19T05:41:15.764Z,78.50
2023-12-19T05:43:42.477Z,78.50
2023-12-19T05:46:11.254Z,78.50
2023-12-19T05:48:38.153Z,78.50
2023-12-19T05:51:05.222Z,78.50
2023-12-19T05:53:31.876Z,78.40
2023-12-19T05:55:58.999Z,78.40
2023-12-19T05:58:27.857Z,78.30
2023-12-19T06:00:57.041Z,78.40
2023-12-19T06:03:28.678Z,78.40
2023-12-19T06:05:55.502Z,78.30
2023-12-19T06:08:24.249Z,78.30
2023-12-19T06:10:52.286Z,78.30
2023-12-19T06:13:22.327Z,78.30
2023-12-19T06:15:50.264Z,78.30
2023-12-19T06:18:19.427Z,78.30
2023-12-19T06:20:48.346Z,78.20
2023-12-19T06:23:14.951Z,78.20
2023-12-19T06:25:43.875Z,78.20
2023-12-19T06:28:16.042Z,78.20
2023-12-19T06:30:44.131Z,78.20
2023-12-19T06:33:11.236Z,78.20
2023-12-19T06:35:44.968Z,78.10
2023-12-19T06:38:11.762Z,78.20
2023-12-19T06:40:38.472Z,78.10
2023-12-19T06:43:07.395Z,78.10
2023-12-19T06:45:34.625Z,78.20
2023-12-19T06:48:02.984Z,78.10
2023-12-19T06:50:32.249Z,78.00
2023-12-19T06:52:59.304Z,78.00
2023-12-19T06:55:27.939Z,78.00
2023-12-19T06:57:56.281Z,77.90
2023-12-19T07:00:22.962Z,77.90
2023-12-19T07:02:49.693Z,77.90
2023-12-19T07:05:16.498Z,77.80
2023-12-19T07:07:45.383Z,77.70
2023-12-19T07:10:12.275Z,77.70
2023-12-19T07:12:41.814Z,77.70
2023-12-19T07:15:11.412Z,77.60
2023-12-19T07:17:38.499Z,77.50
2023-12-19T07:20:05.913Z,77.50
2023-12-19T07:22:32.666Z,77.40
2023-12-19T07:24:59.343Z,77.30
2023-12-19T07:27:26.089Z,77.20
2023-12-19T07:29:52.717Z,77.30
2023-12-19T07:32:19.338Z,77.30
2023-12-19T07:34:47.256Z,77.30
2023-12-19T07:37:13.935Z,77.30
2023-12-19T07:39:40.823Z,77.30
2023-12-19T07:42:11.389Z,77.20
2023-12-19T07:44:38.005Z,77.20
2023-12-19T07:47:05.061Z,77.20
2023-12-19T07:49:34.396Z,77.20
2023-12-19T07:52:03.511Z,77.10
2023-12-19T07:54:30.591Z,77.10
2023-12-19T07:56:57.235Z,77.10
2023-12-19T07:59:23.908Z,77.10
2023-12-19T08:01:50.642Z,77.10
2023-12-19T08:04:18.412Z,77.10
2023-12-19T08:06:45.345Z,77.10
2023-12-19T08:09:14.765Z,77.10
2023-12-19T08:11:41.399Z,77.10
2023-12-19T08:14:08.454Z,77.10
2023-12-19T08:16:35.089Z,77.10
2023-12-19T08:19:04.570Z,77.00
2023-12-19T08:21:33.182Z,77.00
2023-12-19T08:23:59.862Z,76.90
2023-12-19T08:26:26.514Z,76.90
2023-12-19T08:28:55.894Z,76.90
2023-12-19T08:31:25.057Z,76.80
2023-12-19T08:33:55.628Z,76.80
2023-12-19T08:36:33.494Z,76.70
2023-12-19T08:39:02.626Z,76.70
2023-12-19T08:41:29.264Z,76.70
2023-12-19T08:43:55.991Z,76.70
2023-12-19T08:46:25.401Z,76.70
2023-12-19T08:48:53.858Z,76.60
2023-12-19T08:51:21.619Z,76.60
2023-12-19T08:53:49.556Z,76.60
2023-12-19T08:56:16.298Z,76.50
2023-12-19T08:58:45.473Z,76.50
2023-12-19T09:01:14.140Z,76.40
2023-12-19T09:03:40.865Z,76.40
2023-12-19T09:06:08.150Z,76.40
2023-12-19T09:08:34.961Z,76.30
2023-12-19T09:11:01.571Z,76.30
2023-12-19T09:13:29.194Z,76.20
2023-12-19T09:15:57.105Z,76.20
2023-12-19T09:18:25.547Z,76.20
2023-12-19T09:20:52.586Z,76.20
2023-12-19T09:23:19.500Z,76.20
2023-12-19T09:25:48.346Z,76.10
2023-12-19T09:28:15.156Z,76.10
2023-12-19T09:30:41.928Z,76.20
2023-12-19T09:33:08.779Z,76.10
2023-12-19T09:35:37.576Z,75.90
2023-12-19T09:38:05.354Z,75.90
2023-12-19T09:40:36.223Z,75.90
2023-12-19T09:43:03.818Z,75.90
2023-12-19T09:45:30.707Z,75.90
2023-12-19T09:48:01.080Z,75.80
2023-12-19T09:50:31.663Z,75.70
2023-12-19T09:52:59.294Z,75.70
2023-12-19T09:55:30.278Z,75.80
2023-12-19T09:57:59.330Z,75.90
2023-12-19T10:00:33.436Z,75.90
2023-12-19T10:03:00.150Z,75.90
2023-12-19T10:05:27.145Z,75.80
2023-12-19T10:07:53.804Z,75.90
2023-12-19T10:10:22.143Z,75.90
2023-12-19T10:12:57.246Z,76.10
2023-12-19T10:15:26.537Z,76.20
2023-12-19T10:18:11.980Z,76.30
2023-12-19T10:20:39.221Z,76.70
2023-12-19T10:23:07.016Z,76.50
2023-12-19T10:25:44.952Z,76.60
2023-12-19T10:28:14.758Z,76.70
2023-12-19T10:30:45.751Z,76.90
2023-12-19T10:33:15.147Z,77.00
2023-12-19T10:35:45.645Z,76.90
2023-12-19T10:38:12.353Z,77.10
2023-12-19T10:40:39.040Z,77.10
2023-12-19T10:43:08.040Z,77.30
2023-12-19T10:45:39.596Z,77.50
2023-12-19T10:48:08.429Z,77.50
2023-12-19T10:50:38.066Z,77.50
2023-12-19T10:53:07.815Z,77.60
2023-12-19T10:55:42.282Z,77.70
2023-12-19T10:58:11.149Z,77.90
2023-12-19T11:00:44.006Z,77.90
2023-12-19T11:03:42.679Z,78.10
2023-12-19T11:06:13.337Z,78.60
2023-12-19T11:08:45.503Z,78.10
2023-12-19T11:11:42.678Z,78.30
2023-12-19T11:14:09.427Z,78.30
2023-12-19T11:16:53.060Z,78.40
2023-12-19T11:19:29.109Z,78.40
2023-12-19T11:22:16.159Z,78.70
2023-12-19T11:25:20.386Z,78.70
2023-12-19T11:27:59.842Z,79.00
2023-12-19T11:30:33.732Z,78.80
2023-12-19T11:33:00.545Z,78.80
2023-12-19T11:35:33.706Z,78.70
2023-12-19T11:38:21.092Z,78.80
2023-12-19T11:40:48.843Z,79.20
2023-12-19T11:43:31.109Z,78.80
2023-12-19T11:46:04.922Z,79.40
2023-12-19T11:48:36.831Z,79.30
2023-12-19T11:51:05.026Z,79.20
2023-12-19T11:53:32.080Z,79.20
2023-12-19T11:56:14.959Z,79.30
2023-12-19T11:58:49.811Z,79.80
2023-12-19T12:01:16.956Z,79.70
2023-12-19T12:03:43.829Z,79.60
2023-12-19T12:06:11.824Z,79.60
2023-12-19T12:08:38.842Z,79.70
2023-12-19T12:11:07.211Z,79.90
2023-12-19T12:13:35.334Z,79.90
2023-12-19T12:16:03.188Z,79.80
2023-12-19T12:18:32.559Z,79.80
2023-12-19T12:21:10.163Z,79.90
2023-12-19T12:23:37.257Z,80.30
2023-12-19T12:26:06.623Z,80.00
2023-12-19T12:28:34.602Z,80.10
2023-12-19T12:31:02.281Z,80.10
2023-12-19T12:33:30.031Z,80.30
2023-12-19T12:35:59.018Z,80.40
2023-12-19T12:38:26.317Z,80.40
2023-12-19T12:41:00.056Z,80.30
2023-12-19T12:43:51.348Z,80.30
2023-12-19T12:46:22.762Z,80.40
2023-12-19T12:48:55.952Z,80.50
2023-12-19T12:51:23.898Z,80.60
2023-12-19T12:54:03.993Z,80.40
2023-12-19T12:56:33.562Z,80.40
2023-12-19T12:59:07.596Z,80.30
2023-12-19T13:01:35.560Z,80.40
2023-12-19T13:04:03.964Z,81.00
2023-12-19T13:06:31.063Z,80.50
2023-12-19T13:08:57.893Z,80.60
2023-12-19T13:11:24.845Z,80.60
2023-12-19T13:13:54.763Z,80.40
2023-12-19T13:16:22.141Z,80.70
2023-12-19T13:18:49.815Z,80.80
2023-12-19T13:21:17.226Z,80.80
2023-12-19T13:23:43.928Z,80.80
2023-12-19T13:26:10.668Z,80.90
2023-12-19T13:28:38.043Z,81.00
2023-12-19T13:31:05.297Z,81.20
2023-12-19T13:33:35.419Z,81.10
2023-12-19T13:36:05.009Z,81.10
2023-12-19T13:38:31.710Z,81.10
2023-12-19T13:40:59.939Z,81.10
2023-12-19T13:43:29.074Z,81.30
2023-12-19T13:45:55.793Z,81.40
2023-12-19T13:48:22.496Z,81.30
2023-12-19T13:50:49.558Z,81.40
2023-12-19T13:53:20.527Z,81.50
2023-12-19T13:55:47.216Z,81.50
2023-12-19T13:58:13.943Z,81.70
2023-12-19T14:00:41.937Z,81.60
2023-12-19T14:03:08.687Z,81.60
2023-12-19T14:05:36.716Z,81.60
2023-12-19T14:08:03.695Z,81.60
2023-12-19T14:10:35.674Z,81.70
2023-12-19T14:13:05.084Z,81.80
2023-12-19T14:15:32.346Z,81.80
2023-12-19T14:17:59.335Z,81.80
2023-12-19T14:20:29.536Z,81.60
2023-12-19T14:22:57.471Z,81.60
2023-12-19T14:25:24.056Z,81.70
2023-12-19T14:27:54.391Z,81.70
2023-12-19T14:30:23.798Z,81.70
2023-12-19T14:32:50.513Z,81.90
2023-12-19T14:35:17.493Z,81.80
2023-12-19T14:37:45.110Z,81.90
2023-12-19T14:40:13.538Z,82.00
2023-12-19T14:42:40.306Z,82.10
2023-12-19T14:45:07.689Z,82.10
2023-12-19T14:47:34.691Z,82.10
2023-12-19T14:50:01.484Z,82.00
2023-12-19T14:52:28.287Z,82.00
2023-12-19T14:54:56.923Z,82.10
2023-12-19T14:57:26.301Z,82.10
2023-12-19T14:59:55.109Z,82.10
2023-12-19T15:02:22.021Z,82.10
2023-12-19T15:04:49.174Z,82.20
2023-12-19T15:07:16.136Z,82.20
2023-12-19T15:09:43.001Z,82.20
2023-12-19T15:12:10.719Z,82.30
2023-12-19T15:14:37.620Z,82.30
2023-12-19T15:17:04.933Z,82.30
2023-12-19T15:19:34.029Z,82.30
2023-12-19T15:22:00.825Z,82.90
2023-12-19T15:24:27.677Z,82.30
2023-12-19T15:26:56.264Z,82.30
2023-12-19T15:29:25.465Z,82.30
2023-12-19T15:31:52.241Z,82.30
2023-12-19T15:34:19.103Z,82.40
2023-12-19T15:36:50.579Z,82.50
2023-12-19T15:39:17.290Z,82.60
2023-12-19T15:41:43.908Z,82.60
2023-12-19T15:44:12.484Z,82.60
2023-12-19T15:46:50.323Z,82.60
2023-12-19T15:49:20.625Z,82.70
2023-12-19T15:51:47.613Z,82.60
2023-12-19T15:54:17.228Z,82.60
2023-12-19T15:56:45.553Z,82.60
2023-12-19T15:59:14.852Z,82.60
2023-12-19T16:01:42.089Z,82.60
2023-12-19T16:04:09.256Z,82.80
2023-12-19T16:06:37.744Z,82.70
2023-12-19T16:09:04.580Z,82.70
2023-12-19T16:11:33.615Z,82.60
2023-12-19T16:14:00.504Z,82.80
2023-12-19T16:16:27.175Z,82.90
2023-12-19T16:18:55.775Z,82.90
2023-12-19T16:21:22.971Z,82.90
2023-12-19T16:24:00.980Z,82.90
2023-12-19T16:26:33.673Z,83.00
2023-12-19T16:29:01.053Z,83.10
2023-12-19T16:31:28.197Z,82.90
2023-12-19T16:33:55.215Z,82.90
2023-12-19T16:36:22.327Z,83.00
2023-12-19T16:38:49.868Z,82.90
2023-12-19T16:41:18.797Z,83.00
2023-12-19T16:43:48.016Z,82.90
2023-12-19T16:46:15.185Z,83.10
2023-12-19T16:48:42.914Z,83.00
2023-12-19T16:51:10.044Z,83.00
2023-12-19T16:53:36.860Z,83.10
2023-12-19T16:56:05.368Z,83.10
2023-12-19T16:58:40.115Z,83.10
2023-12-19T17:01:14.085Z,83.20
2023-12-19T17:03:42.545Z,83.20
2023-12-19T17:06:09.517Z,83.20
2023-12-19T17:08:36.259Z,83.10
2023-12-19T17:11:02.899Z,83.20
2023-12-19T17:13:29.551Z,83.20
2023-12-19T17:15:56.246Z,83.20
2023-12-19T17:18:25.152Z,83.20
2023-12-19T17:20:51.782Z,83.20
2023-12-19T17:23:20.604Z,83.20
2023-12-19T17:25:51.005Z,83.20
2023-12-19T17:28:19.828Z,83.20
2023-12-19T17:30:49.064Z,83.20
2023-12-19T17:33:16.089Z,83.20
2023-12-19T17:35:42.780Z,83.20
2023-12-19T17:38:11.562Z,83.20
2023-12-19T17:40:38.205Z,83.20
2023-12-19T17:43:04.919Z,83.30
2023-12-19T17:45:31.646Z,83.20
2023-12-19T17:47:58.462Z,83.20
2023-12-19T17:50:25.238Z,83.20
2023-12-19T17:52:51.986Z,83.20
2023-12-19T17:55:22.166Z,83.30
2023-12-19T17:57:53.856Z,83.30
2023-12-19T18:00:21.004Z,83.30
2023-12-19T18:02:48.360Z,83.30
2023-12-19T18:05:15.260Z,83.20
2023-12-19T18:07:42.225Z,83.30
2023-12-19T18:10:09.376Z,83.20
2023-12-19T18:12:36.076Z,83.20
2023-12-19T18:15:03.087Z,83.20
2023-12-19T18:17:29.824Z,83.20
2023-12-19T18:19:59.533Z,83.20
2023-12-19T18:22:28.929Z,83.30
2023-12-19T18:25:00.931Z,83.30
2023-12-19T18:27:27.664Z,83.30
2023-12-19T18:29:54.258Z,83.30
2023-12-19T18:32:20.974Z,83.30
2023-12-19T18:34:47.770Z,83.30
2023-12-19T18:37:15.859Z,83.40
2023-12-19T18:39:45.884Z,83.30
2023-12-19T18:42:12.992Z,83.30
2023-12-19T18:44:40.698Z,83.30
2023-12-19T18:47:11.756Z,83.40
2023-12-19T18:49:38.497Z,83.30
2023-12-19T18:52:05.373Z,83.30
2023-12-19T18:54:35.827Z,83.40
2023-12-19T18:57:03.200Z,83.40
2023-12-19T18:59:32.554Z,83.40
2023-12-19T19:01:59.271Z,83.50
2023-12-19T19:04:26.074Z,83.60
2023-12-19T19:06:52.794Z,83.60
2023-12-19T19:09:19.440Z,83.60
2023-12-19T19:11:48.651Z,83.70
2023-12-19T19:14:15.579Z,83.70
2023-12-19T19:16:44.775Z,83.60
2023-12-19T19:19:11.498Z,83.70
2023-12-19T19:21:38.309Z,83.70
2023-12-19T19:24:09.288Z,83.70
2023-12-19T19:26:37.847Z,83.80
2023-12-19T19:29:04.463Z,83.70
2023-12-19T19:31:31.371Z,83.70
2023-12-19T19:33:58.247Z,83.70
2023-12-19T19:36:28.869Z,83.80
2023-12-19T19:38:55.500Z,83.80
2023-12-19T19:41:22.934Z,83.80
2023-12-19T19:43:50.066Z,83.80
2023-12-19T19:46:16.979Z,83.80
2023-12-19T19:48:46.293Z,83.80
2023-12-19T19:51:13.098Z,83.80
2023-12-19T19:53:39.874Z,83.80
2023-12-19T19:56:08.683Z,83.80
2023-12-19T19:58:36.071Z,83.80
2023-12-19T20:01:02.795Z,83.90
2023-12-19T20:03:29.621Z,83.90
2023-12-19T20:05:58.728Z,83.80
2023-12-19T20:08:26.873Z,83.90
2023-12-19T20:10:54.625Z,83.90
2023-12-19T20:13:23.628Z,83.90
2023-12-19T20:15:52.574Z,83.90
2023-12-19T20:18:19.768Z,83.80
2023-12-19T20:20:53.380Z,83.80
2023-12-19T20:23:29.854Z,83.90
2023-12-19T20:25:58.963Z,83.90
2023-12-19T20:28:25.713Z,83.80
2023-12-19T20:30:52.696Z,83.80
2023-12-19T20:33:20.563Z,83.70
2023-12-19T20:35:49.487Z,83.70
2023-12-19T20:38:16.592Z,83.80
2023-12-19T20:40:43.261Z,83.90
2023-12-19T20:43:12.816Z,83.80
2023-12-19T20:45:40.100Z,83.80
2023-12-19T20:48:08.071Z,83.90
2023-12-19T20:50:38.015Z,83.80
2023-12-19T20:53:05.517Z,83.90
2023-12-19T20:55:33.143Z,83.80
2023-12-19T20:58:00.052Z,83.80
2023-12-19T21:00:27.451Z,83.80
2023-12-19T21:02:56.810Z,83.90
2023-12-19T21:05:25.749Z,83.90
2023-12-19T21:07:52.527Z,84.00
2023-12-19T21:10:20.318Z,83.90
2023-12-19T21:12:47.416Z,83.90
2023-12-19T21:15:21.605Z,84.00
2023-12-19T21:17:50.801Z,84.50
2023-12-19T21:20:17.535Z,83.90
2023-12-19T21:22:44.701Z,83.90
2023-12-19T21:25:14.182Z,83.90
2023-12-19T21:27:40.918Z,83.90
2023-12-19T21:30:12.030Z,83.90
2023-12-19T21:32:41.847Z,83.90
2023-12-19T21:35:09.569Z,83.80
2023-12-19T21:37:37.705Z,83.90
2023-12-19T21:40:07.954Z,83.90
2023-12-19T21:42:39.268Z,83.90
2023-12-19T21:45:06.556Z,83.80
2023-12-19T21:47:35.657Z,83.80
2023-12-19T21:50:02.430Z,83.70
2023-12-19T21:52:30.373Z,83.70
2023-12-19T21:54:57.160Z,83.60
2023-12-19T21:57:23.905Z,84.20
2023-12-19T21:59:50.570Z,83.60
2023-12-19T22:02:19.991Z,83.60
2023-12-19T22:04:47.212Z,83.60
2023-12-19T22:07:18.346Z,83.60
2023-12-19T22:09:54.055Z,83.60
2023-12-19T22:12:24.243Z,83.60
2023-12-19T22:14:50.872Z,83.60
2023-12-19T22:17:18.838Z,83.60
2023-12-19T22:19:53.519Z,83.60
2023-12-19T22:22:22.564Z,83.50
2023-12-19T22:24:51.188Z,83.50
2023-12-19T22:27:17.817Z,83.60
2023-12-19T22:29:47.673Z,83.60
2023-12-19T22:32:15.873Z,83.60
2023-12-19T22:34:47.506Z,83.60
2023-12-19T22:37:14.382Z,83.60
2023-12-19T22:39:43.522Z,83.60
2023-12-19T22:42:11.473Z,83.60
2023-12-19T22:44:42.420Z,83.60
2023-12-19T22:47:09.061Z,83.60
2023-12-19T22:49:36.488Z,83.60
2023-12-19T22:52:06.886Z,83.50
2023-12-19T22:54:36.358Z,83.60
2023-12-19T22:57:05.312Z,83.40
2023-12-19T22:59:34.721Z,83.40
2023-12-19T23:02:01.464Z,83.40
2023-12-19T23:04:28.252Z,84.00
2023-12-19T23:06:55.132Z,83.40
2023-12-19T23:09:21.970Z,83.30
2023-12-19T23:11:48.623Z,83.30
2023-12-19T23:14:21.513Z,83.30
2023-12-19T23:16:48.308Z,83.20
2023-12-19T23:19:17.043Z,83.20
2023-12-19T23:21:44.889Z,83.20
2023-12-19T23:24:12.861Z,83.00
2023-12-19T23:26:39.477Z,83.00
2023-12-19T23:29:08.953Z,82.90
2023-12-19T23:31:41.541Z,83.00
2023-12-19T23:34:12.002Z,82.90
2023-12-19T23:36:38.883Z,82.90
2023-12-19T23:39:05.565Z,82.80
2023-12-19T23:41:33.572Z,82.90
2023-12-19T23:44:00.212Z,82.90
2023-12-19T23:46:32.048Z,82.90
2023-12-19T23:48:58.768Z,82.90
2023-12-19T23:51:30.009Z,83.00
2023-12-19T23:53:56.679Z,83.10
2023-12-19T23:56:26.031Z,83.00
2023-12-19T23:58:52.794Z,83.00
